sensor_id;sensor_type;location;lat;lon;timestamp;pressure;altitude;pressure_sealevel;temperature;humidity
58686;BME280;44465;53.206;-6.106;2022-08-04T00:01:07;101354.47;;;23.93;53.61
58686;BME280;44465;53.206;-6.106;2022-08-04T00:03:43;101356.28;;;23.93;53.26
58686;BME280;44465;53.206;-6.106;2022-08-04T00:06:23;101357.09;;;23.95;53.16
58686;BME280;44465;53.206;-6.106;2022-08-04T00:09:02;101355.31;;;23.94;53.31
58686;BME280;44465;53.206;-6.106;2022-08-04T00:11:32;101353.59;;;23.93;53.02
58686;BME280;44465;53.206;-6.106;2022-08-04T00:14:03;101349.94;;;23.94;53.12
58686;BME280;44465;53.206;-6.106;2022-08-04T00:16:32;101349.94;;;23.94;53.06
58686;BME280;44465;53.206;-6.106;2022-08-04T00:19:03;101351.66;;;23.96;53.17
58686;BME280;44465;53.206;-6.106;2022-08-04T00:21:30;101354.22;;;23.98;53.12
58686;BME280;44465;53.206;-6.106;2022-08-04T00:24:01;101350.66;;;23.97;53.52
58686;BME280;44465;53.206;-6.106;2022-08-04T00:26:27;101355.19;;;23.97;53.60
58686;BME280;44465;53.206;-6.106;2022-08-04T00:28:52;101355.97;;;23.99;53.37
58686;BME280;44465;53.206;-6.106;2022-08-04T00:31:20;101358.44;;;24.02;53.43
58686;BME280;44465;53.206;-6.106;2022-08-04T00:33:47;101357.59;;;24.01;53.84
58686;BME280;44465;53.206;-6.106;2022-08-04T00:36:13;101359.34;;;24.03;53.92
58686;BME280;44465;53.206;-6.106;2022-08-04T00:38:40;101358.44;;;24.02;53.82
58686;BME280;44465;53.206;-6.106;2022-08-04T00:41:36;101358.66;;;23.99;53.50
58686;BME280;44465;53.206;-6.106;2022-08-04T00:46:53;101364.72;;;24.03;53.60
58686;BME280;44465;53.206;-6.106;2022-08-04T00:52:21;101356.75;;;24.01;53.31
58686;BME280;44465;53.206;-6.106;2022-08-04T01:00:22;101366.63;;;24.00;53.70
58686;BME280;44465;53.206;-6.106;2022-08-04T01:11:30;101384.41;;;24.03;53.69
58686;BME280;44465;53.206;-6.106;2022-08-04T01:16:30;101386.91;;;24.06;53.79
58686;BME280;44465;53.206;-6.106;2022-08-04T01:19:00;101395.00;;;24.06;53.79
58686;BME280;44465;53.206;-6.106;2022-08-04T01:27:02;101396.81;;;24.06;53.51
58686;BME280;44465;53.206;-6.106;2022-08-04T01:29:34;101393.19;;;24.07;53.69
58686;BME280;44465;53.206;-6.106;2022-08-04T01:32:06;101385.34;;;24.02;53.55
58686;BME280;44465;53.206;-6.106;2022-08-04T01:34:42;101389.72;;;24.05;53.61
58686;BME280;44465;53.206;-6.106;2022-08-04T01:37:39;101394.41;;;24.01;53.57
58686;BME280;44465;53.206;-6.106;2022-08-04T01:40:08;101397.00;;;24.03;53.92
58686;BME280;44465;53.206;-6.106;2022-08-04T01:42:38;101403.16;;;24.05;53.61
58686;BME280;44465;53.206;-6.106;2022-08-04T01:45:10;101393.34;;;24.04;53.84
58686;BME280;44465;53.206;-6.106;2022-08-04T01:47:37;101392.31;;;24.06;53.55
58686;BME280;44465;53.206;-6.106;2022-08-04T01:50:10;101397.69;;;24.06;53.46
58686;BME280;44465;53.206;-6.106;2022-08-04T01:52:37;101388.66;;;24.07;53.78
58686;BME280;44465;53.206;-6.106;2022-08-04T01:55:06;101397.69;;;24.06;53.67
58686;BME280;44465;53.206;-6.106;2022-08-04T01:57:35;101395.88;;;24.07;53.68
58686;BME280;44465;53.206;-6.106;2022-08-04T02:00:02;101389.50;;;24.08;53.74
58686;BME280;44465;53.206;-6.106;2022-08-04T02:02:29;101387.81;;;24.07;53.61
58686;BME280;44465;53.206;-6.106;2022-08-04T02:04:55;101388.66;;;24.07;53.76
58686;BME280;44465;53.206;-6.106;2022-08-04T02:07:31;101393.09;;;24.08;53.54
58686;BME280;44465;53.206;-6.106;2022-08-04T02:10:06;101394.88;;;24.08;53.66
58686;BME280;44465;53.206;-6.106;2022-08-04T02:13:09;101394.22;;;24.04;53.41
58686;BME280;44465;53.206;-6.106;2022-08-04T02:15:56;101397.69;;;24.06;53.62
58686;BME280;44465;53.206;-6.106;2022-08-04T02:18:41;101397.00;;;24.03;53.51
58686;BME280;44465;53.206;-6.106;2022-08-04T02:21:12;101396.81;;;24.06;53.82
58686;BME280;44465;53.206;-6.106;2022-08-04T02:23:40;101404.00;;;24.05;53.73
58686;BME280;44465;53.206;-6.106;2022-08-04T02:26:35;101397.84;;;24.03;53.57
58686;BME280;44465;53.206;-6.106;2022-08-04T02:31:52;101404.97;;;24.04;53.68
58686;BME280;44465;53.206;-6.106;2022-08-04T02:36:53;101410.34;;;24.04;53.84
58686;BME280;44465;53.206;-6.106;2022-08-04T02:39:21;101408.63;;;24.03;53.35
58686;BME280;44465;53.206;-6.106;2022-08-04T02:41:48;101418.34;;;24.06;53.44
58686;BME280;44465;53.206;-6.106;2022-08-04T02:44:19;101418.00;;;23.96;53.87
58686;BME280;44465;53.206;-6.106;2022-08-04T02:46:45;101424.75;;;24.03;53.70
58686;BME280;44465;53.206;-6.106;2022-08-04T02:49:13;101424.69;;;24.05;53.62
58686;BME280;44465;53.206;-6.106;2022-08-04T02:51:41;101426.50;;;24.04;53.54
58686;BME280;44465;53.206;-6.106;2022-08-04T02:54:07;101424.34;;;23.95;53.63
58686;BME280;44465;53.206;-6.106;2022-08-04T02:56:35;101421.31;;;24.01;53.59
58686;BME280;44465;53.206;-6.106;2022-08-04T02:59:09;101424.00;;;24.01;53.70
58686;BME280;44465;53.206;-6.106;2022-08-04T03:01:36;101423.22;;;23.99;53.63
58686;BME280;44465;53.206;-6.106;2022-08-04T03:04:24;101430.41;;;23.98;53.53
58686;BME280;44465;53.206;-6.106;2022-08-04T03:15:46;101419.88;;;23.94;53.41
58686;BME280;44465;53.206;-6.106;2022-08-04T03:30:50;101441.94;;;24.00;53.52
58686;BME280;44465;53.206;-6.106;2022-08-04T03:42:13;101417.31;;;23.76;53.31
58686;BME280;44465;53.206;-6.106;2022-08-04T04:10:18;101433.81;;;23.70;53.39
58686;BME280;44465;53.206;-6.106;2022-08-04T04:18:51;101478.94;;;23.97;53.63
58686;BME280;44465;53.206;-6.106;2022-08-04T04:32:56;101504.09;;;23.96;53.63
58686;BME280;44465;53.206;-6.106;2022-08-04T04:44:17;101522.09;;;23.94;53.64
58686;BME280;44465;53.206;-6.106;2022-08-04T04:47:29;101524.88;;;23.92;53.83
58686;BME280;44465;53.206;-6.106;2022-08-04T04:50:03;101527.69;;;23.91;53.79
58686;BME280;44465;53.206;-6.106;2022-08-04T04:52:39;101479.94;;;23.62;53.52
58686;BME280;44465;53.206;-6.106;2022-08-04T04:55:30;101534.84;;;23.90;53.64
58686;BME280;44465;53.206;-6.106;2022-08-04T04:57:59;101539.28;;;23.91;53.54
58686;BME280;44465;53.206;-6.106;2022-08-04T05:00:37;101497.56;;;23.68;53.76
58686;BME280;44465;53.206;-6.106;2022-08-04T05:14:07;101527.91;;;23.70;53.46
58686;BME280;44465;53.206;-6.106;2022-08-04T05:16:38;101553.34;;;23.80;53.73
58686;BME280;44465;53.206;-6.106;2022-08-04T05:19:27;101577.78;;;23.92;53.72
58686;BME280;44465;53.206;-6.106;2022-08-04T05:22:03;101575.03;;;23.93;53.81
58686;BME280;44465;53.206;-6.106;2022-08-04T05:24:35;101568.34;;;23.84;53.70
58686;BME280;44465;53.206;-6.106;2022-08-04T05:27:07;101547.75;;;23.67;53.67
58686;BME280;44465;53.206;-6.106;2022-08-04T05:29:40;101591.25;;;23.92;53.82
58686;BME280;44465;53.206;-6.106;2022-08-04T05:32:12;101583.28;;;23.90;53.79
58686;BME280;44465;53.206;-6.106;2022-08-04T05:34:46;101587.69;;;23.91;53.63
58686;BME280;44465;53.206;-6.106;2022-08-04T05:37:18;101581.63;;;23.88;53.71
58686;BME280;44465;53.206;-6.106;2022-08-04T05:39:48;101575.63;;;23.82;53.26
58686;BME280;44465;53.206;-6.106;2022-08-04T05:42:18;101553.91;;;23.69;53.61
58686;BME280;44465;53.206;-6.106;2022-08-04T05:44:44;101556.72;;;23.68;53.66
58686;BME280;44465;53.206;-6.106;2022-08-04T05:47:11;101558.69;;;23.64;53.58
58686;BME280;44465;53.206;-6.106;2022-08-04T05:49:38;101565.63;;;23.68;53.55
58686;BME280;44465;53.206;-6.106;2022-08-04T05:52:05;101607.75;;;23.85;53.77
58686;BME280;44465;53.206;-6.106;2022-08-04T05:54:33;101606.78;;;23.86;53.63
58686;BME280;44465;53.206;-6.106;2022-08-04T05:57:02;101612.78;;;23.92;53.33
58686;BME280;44465;53.206;-6.106;2022-08-04T05:59:30;101614.69;;;23.90;53.38
58686;BME280;44465;53.206;-6.106;2022-08-04T06:01:56;101623.88;;;23.85;53.64
58686;BME280;44465;53.206;-6.106;2022-08-04T06:04:42;101593.84;;;23.77;53.86
58686;BME280;44465;53.206;-6.106;2022-08-04T06:07:09;101620.84;;;23.92;53.84
58686;BME280;44465;53.206;-6.106;2022-08-04T06:09:39;101593.06;;;23.75;53.81
58686;BME280;44465;53.206;-6.106;2022-08-04T06:12:13;101601.75;;;23.80;53.58
58686;BME280;44465;53.206;-6.106;2022-08-04T06:14:42;101616.59;;;23.88;53.73
58686;BME280;44465;53.206;-6.106;2022-08-04T06:17:10;101607.19;;;23.79;53.24
58686;BME280;44465;53.206;-6.106;2022-08-04T06:19:39;101632.38;;;23.94;53.52
58686;BME280;44465;53.206;-6.106;2022-08-04T06:22:05;101598.78;;;23.69;53.35
58686;BME280;44465;53.206;-6.106;2022-08-04T06:24:35;101613.53;;;23.78;53.39
58686;BME280;44465;53.206;-6.106;2022-08-04T06:27:02;101647.63;;;23.95;53.37
58686;BME280;44465;53.206;-6.106;2022-08-04T06:29:29;101615.22;;;23.80;53.64
58686;BME280;44465;53.206;-6.106;2022-08-04T06:32:04;101615.22;;;23.80;53.18
58686;BME280;44465;53.206;-6.106;2022-08-04T06:34:54;101599.97;;;23.63;53.04
58686;BME280;44465;53.206;-6.106;2022-08-04T06:37:21;101647.63;;;23.95;53.30
58686;BME280;44465;53.206;-6.106;2022-08-04T06:39:47;101653.56;;;23.84;53.50
58686;BME280;44465;53.206;-6.106;2022-08-04T06:42:15;101655.19;;;23.86;53.66
58686;BME280;44465;53.206;-6.106;2022-08-04T06:44:45;101667.44;;;23.92;53.49
58686;BME280;44465;53.206;-6.106;2022-08-04T06:47:15;101625.97;;;23.63;53.24
58686;BME280;44465;53.206;-6.106;2022-08-04T06:49:45;101634.69;;;23.68;53.30
58686;BME280;44465;53.206;-6.106;2022-08-04T06:52:13;101655.56;;;23.80;53.08
58686;BME280;44465;53.206;-6.106;2022-08-04T06:54:45;101655.69;;;23.77;53.39
58686;BME280;44465;53.206;-6.106;2022-08-04T06:57:17;101655.69;;;23.77;53.33
58686;BME280;44465;53.206;-6.106;2022-08-04T06:59:48;101639.88;;;23.71;53.20
58686;BME280;44465;53.206;-6.106;2022-08-04T07:02:19;101664.56;;;23.79;53.44
58686;BME280;44465;53.206;-6.106;2022-08-04T07:04:46;101645.69;;;23.63;53.33
58686;BME280;44465;53.206;-6.106;2022-08-04T07:07:12;101682.81;;;23.90;53.47
58686;BME280;44465;53.206;-6.106;2022-08-04T07:09:39;101661.00;;;23.79;53.08
58686;BME280;44465;53.206;-6.106;2022-08-04T07:12:06;101645.59;;;23.65;53.24
58686;BME280;44465;53.206;-6.106;2022-08-04T07:14:32;101661.09;;;23.77;53.01
58686;BME280;44465;53.206;-6.106;2022-08-04T07:17:05;101646.44;;;23.65;53.15
58686;BME280;44465;53.206;-6.106;2022-08-04T07:19:33;101655.31;;;23.67;53.47
58686;BME280;44465;53.206;-6.106;2022-08-04T07:22:00;101672.16;;;23.71;53.18
58686;BME280;44465;53.206;-6.106;2022-08-04T07:24:33;101699.63;;;23.95;53.20
58686;BME280;44465;53.206;-6.106;2022-08-04T07:26:59;101687.03;;;23.78;53.28
58686;BME280;44465;53.206;-6.106;2022-08-04T07:29:25;101677.22;;;23.77;53.25
58686;BME280;44465;53.206;-6.106;2022-08-04T07:31:53;101677.28;;;23.76;53.17
58686;BME280;44465;53.206;-6.106;2022-08-04T07:34:19;101662.53;;;23.67;52.83
58686;BME280;44465;53.206;-6.106;2022-08-04T07:36:46;101671.44;;;23.67;52.76
58686;BME280;44465;53.206;-6.106;2022-08-04T07:39:13;101676.91;;;23.66;53.38
58686;BME280;44465;53.206;-6.106;2022-08-04T07:41:40;101693.41;;;23.76;53.00
58686;BME280;44465;53.206;-6.106;2022-08-04T07:44:07;101707.41;;;23.82;53.40
58686;BME280;44465;53.206;-6.106;2022-08-04T07:46:36;101717.72;;;22.66;48.04
58686;BME280;44465;53.206;-6.106;2022-08-04T07:49:02;101736.69;;;22.42;46.28
58686;BME280;44465;53.206;-6.106;2022-08-04T07:51:29;101683.38;;;21.74;46.24
58686;BME280;44465;53.206;-6.106;2022-08-04T07:53:56;101734.47;;;21.71;45.25
58686;BME280;44465;53.206;-6.106;2022-08-04T07:56:22;101675.97;;;21.17;46.07
58686;BME280;44465;53.206;-6.106;2022-08-04T07:58:47;101693.09;;;21.13;46.01
58686;BME280;44465;53.206;-6.106;2022-08-04T08:01:13;101733.44;;;21.10;45.88
58686;BME280;44465;53.206;-6.106;2022-08-04T08:03:39;101713.06;;;20.83;46.29
58686;BME280;44465;53.206;-6.106;2022-08-04T08:06:05;101682.63;;;20.62;45.54
58686;BME280;44465;53.206;-6.106;2022-08-04T08:08:31;101673.38;;;20.47;46.47
58686;BME280;44465;53.206;-6.106;2022-08-04T08:10:56;101698.13;;;20.30;45.83
58686;BME280;44465;53.206;-6.106;2022-08-04T08:13:23;101724.03;;;20.52;45.68
58686;BME280;44465;53.206;-6.106;2022-08-04T08:15:49;101717.06;;;20.24;46.61
58686;BME280;44465;53.206;-6.106;2022-08-04T08:18:16;101685.34;;;20.14;46.30
58686;BME280;44465;53.206;-6.106;2022-08-04T08:20:45;101701.25;;;19.94;46.58
58686;BME280;44465;53.206;-6.106;2022-08-04T08:23:11;101751.75;;;20.27;46.41
58686;BME280;44465;53.206;-6.106;2022-08-04T08:25:37;101721.19;;;20.09;46.05
58686;BME280;44465;53.206;-6.106;2022-08-04T08:28:04;101735.81;;;19.98;46.39
58686;BME280;44465;53.206;-6.106;2022-08-04T08:30:32;101722.53;;;19.97;46.62
58686;BME280;44465;53.206;-6.106;2022-08-04T08:32:59;101719.22;;;19.89;46.26
58686;BME280;44465;53.206;-6.106;2022-08-04T08:35:26;101754.22;;;20.08;46.70
58686;BME280;44465;53.206;-6.106;2022-08-04T08:37:56;101737.75;;;19.68;46.37
58686;BME280;44465;53.206;-6.106;2022-08-04T08:40:34;101747.53;;;19.42;46.75
58686;BME280;44465;53.206;-6.106;2022-08-04T08:52:19;101783.69;;;19.79;47.21
58686;BME280;44465;53.206;-6.106;2022-08-04T09:07:53;101774.53;;;19.60;46.83
58686;BME280;44465;53.206;-6.106;2022-08-04T09:10:47;101758.91;;;19.47;46.48
58686;BME280;44465;53.206;-6.106;2022-08-04T09:13:38;101776.91;;;19.42;46.67
58686;BME280;44465;53.206;-6.106;2022-08-04T09:21:44;101789.88;;;19.55;46.34
58686;BME280;44465;53.206;-6.106;2022-08-04T09:24:27;101785.44;;;19.53;46.28
58686;BME280;44465;53.206;-6.106;2022-08-04T09:27:17;101782.13;;;19.45;46.36
58686;BME280;44465;53.206;-6.106;2022-08-04T09:43:35;101785.13;;;19.63;46.07
58686;BME280;44465;53.206;-6.106;2022-08-04T09:46:13;101795.09;;;19.58;46.18
58686;BME280;44465;53.206;-6.106;2022-08-04T09:54:05;101798.53;;;19.61;46.16
58686;BME280;44465;53.206;-6.106;2022-08-04T09:57:13;101795.81;;;19.63;46.26
58686;BME280;44465;53.206;-6.106;2022-08-04T09:59:49;101791.59;;;19.56;46.23
58686;BME280;44465;53.206;-6.106;2022-08-04T10:02:20;101788.69;;;19.36;46.09
58686;BME280;44465;53.206;-6.106;2022-08-04T10:04:48;101775.56;;;19.56;46.33
58686;BME280;44465;53.206;-6.106;2022-08-04T10:15:27;101797.25;;;19.46;45.49
58686;BME280;44465;53.206;-6.106;2022-08-04T10:18:10;101791.56;;;19.57;45.46
58686;BME280;44465;53.206;-6.106;2022-08-04T10:23:51;101818.13;;;19.62;45.25
58686;BME280;44465;53.206;-6.106;2022-08-04T10:29:17;101812.34;;;19.47;44.61
58686;BME280;44465;53.206;-6.106;2022-08-04T10:31:49;101802.00;;;19.65;45.21
58686;BME280;44465;53.206;-6.106;2022-08-04T10:34:20;101813.72;;;19.61;44.80
58686;BME280;44465;53.206;-6.106;2022-08-04T10:39:28;101815.31;;;19.66;44.94
58686;BME280;44465;53.206;-6.106;2022-08-04T10:44:36;101825.63;;;19.50;44.38
58686;BME280;44465;53.206;-6.106;2022-08-04T10:47:25;101820.88;;;19.32;43.51
58686;BME280;44465;53.206;-6.106;2022-08-04T10:49:55;101817.06;;;19.39;43.74
58686;BME280;44465;53.206;-6.106;2022-08-04T10:58:00;101828.69;;;19.38;42.85
58686;BME280;44465;53.206;-6.106;2022-08-04T11:00:28;101815.38;;;19.36;43.33
58686;BME280;44465;53.206;-6.106;2022-08-04T11:03:06;101821.94;;;19.55;43.85
58686;BME280;44465;53.206;-6.106;2022-08-04T11:05:54;101838.97;;;19.50;43.50
58686;BME280;44465;53.206;-6.106;2022-08-04T11:08:28;101834.47;;;19.52;43.90
58686;BME280;44465;53.206;-6.106;2022-08-04T11:11:04;101823.88;;;19.49;43.95
58686;BME280;44465;53.206;-6.106;2022-08-04T11:13:43;101840.66;;;19.53;44.21
58686;BME280;44465;53.206;-6.106;2022-08-04T11:16:15;101831.06;;;19.47;43.42
58686;BME280;44465;53.206;-6.106;2022-08-04T11:22:08;101837.97;;;19.55;43.34
58686;BME280;44465;53.206;-6.106;2022-08-04T11:30:06;101840.72;;;19.51;42.95
58686;BME280;44465;53.206;-6.106;2022-08-04T11:32:38;101850.59;;;19.49;43.56
58686;BME280;44465;53.206;-6.106;2022-08-04T11:35:12;101842.47;;;19.52;43.70
58686;BME280;44465;53.206;-6.106;2022-08-04T11:37:45;101852.47;;;19.46;43.56
58686;BME280;44465;53.206;-6.106;2022-08-04T11:40:28;101850.59;;;19.49;43.23
58686;BME280;44465;53.206;-6.106;2022-08-04T11:43:05;101846.91;;;19.53;43.24
58686;BME280;44465;53.206;-6.106;2022-08-04T11:45:54;101854.09;;;19.51;43.15
58686;BME280;44465;53.206;-6.106;2022-08-04T11:48:46;101849.50;;;19.55;43.10
58686;BME280;44465;53.206;-6.106;2022-08-04T11:51:17;101845.72;;;19.62;43.28
58686;BME280;44465;53.206;-6.106;2022-08-04T11:53:44;101848.34;;;19.64;43.47
58686;BME280;44465;53.206;-6.106;2022-08-04T11:56:12;101852.50;;;19.73;44.57
58686;BME280;44465;53.206;-6.106;2022-08-04T11:58:39;101854.13;;;20.05;44.81
58686;BME280;44465;53.206;-6.106;2022-08-04T12:09:18;101861.66;;;20.70;46.24
58686;BME280;44465;53.206;-6.106;2022-08-04T12:12:24;101852.09;;;20.88;46.59
58686;BME280;44465;53.206;-6.106;2022-08-04T12:20:30;101850.66;;;21.01;47.62
58686;BME280;44465;53.206;-6.106;2022-08-04T12:23:00;101858.06;;;21.18;47.69
58686;BME280;44465;53.206;-6.106;2022-08-04T12:25:33;101848.59;;;21.10;48.17
58686;BME280;44465;53.206;-6.106;2022-08-04T12:30:53;101856.13;;;21.22;48.32
58686;BME280;44465;53.206;-6.106;2022-08-04T12:33:25;101856.94;;;21.24;48.46
58686;BME280;44465;53.206;-6.106;2022-08-04T12:35:58;101849.16;;;21.40;48.36
58686;BME280;44465;53.206;-6.106;2022-08-04T12:38:28;101861.69;;;21.39;48.91
58686;BME280;44465;53.206;-6.106;2022-08-04T12:40:58;101871.94;;;21.52;48.61
58686;BME280;44465;53.206;-6.106;2022-08-04T12:43:42;101872.03;;;21.49;49.00
58686;BME280;44465;53.206;-6.106;2022-08-04T12:46:19;101876.41;;;21.51;49.07
58686;BME280;44465;53.206;-6.106;2022-08-04T12:48:47;101863.94;;;21.50;49.28
58686;BME280;44465;53.206;-6.106;2022-08-04T12:51:13;101875.41;;;21.54;49.14
58686;BME280;44465;53.206;-6.106;2022-08-04T12:53:41;101882.38;;;21.58;49.28
58686;BME280;44465;53.206;-6.106;2022-08-04T12:56:12;101882.47;;;21.57;49.31
58686;BME280;44465;53.206;-6.106;2022-08-04T12:58:43;101882.31;;;21.61;49.17
58686;BME280;44465;53.206;-6.106;2022-08-04T13:01:12;101889.41;;;21.62;49.21
58686;BME280;44465;53.206;-6.106;2022-08-04T13:03:43;101887.41;;;21.67;49.11
58686;BME280;44465;53.206;-6.106;2022-08-04T13:06:13;101874.81;;;21.69;49.65
58686;BME280;44465;53.206;-6.106;2022-08-04T13:08:42;101881.78;;;21.74;49.69
58686;BME280;44465;53.206;-6.106;2022-08-04T13:11:09;101894.13;;;21.78;49.62
58686;BME280;44465;53.206;-6.106;2022-08-04T13:13:37;101881.44;;;21.83;49.68
58686;BME280;44465;53.206;-6.106;2022-08-04T13:16:07;101886.78;;;21.83;49.72
58686;BME280;44465;53.206;-6.106;2022-08-04T13:18:36;101886.53;;;21.89;49.89
58686;BME280;44465;53.206;-6.106;2022-08-04T13:21:20;101889.88;;;21.94;49.76
58686;BME280;44465;53.206;-6.106;2022-08-04T13:23:51;101887.03;;;21.99;50.00
58686;BME280;44465;53.206;-6.106;2022-08-04T13:26:18;101892.31;;;22.00;50.05
58686;BME280;44465;53.206;-6.106;2022-08-04T13:28:48;101893.13;;;22.03;50.09
58686;BME280;44465;53.206;-6.106;2022-08-04T13:31:19;101893.91;;;22.05;50.09
58686;BME280;44465;53.206;-6.106;2022-08-04T13:33:47;101887.59;;;22.06;50.24
58686;BME280;44465;53.206;-6.106;2022-08-04T13:36:15;101887.34;;;22.12;50.18
58686;BME280;44465;53.206;-6.106;2022-08-04T13:38:48;101894.53;;;22.11;49.90
58686;BME280;44465;53.206;-6.106;2022-08-04T13:41:16;101887.34;;;22.12;49.91
58686;BME280;44465;53.206;-6.106;2022-08-04T13:43:48;101892.13;;;22.26;49.61
58686;BME280;44465;53.206;-6.106;2022-08-04T13:46:19;101895.81;;;22.23;49.74
58686;BME280;44465;53.206;-6.106;2022-08-04T13:48:45;101892.22;;;22.24;49.86
58686;BME280;44465;53.206;-6.106;2022-08-04T13:51:16;101893.69;;;22.31;49.77
58686;BME280;44465;53.206;-6.106;2022-08-04T13:53:42;101896.44;;;22.30;50.06
58686;BME280;44465;53.206;-6.106;2022-08-04T13:56:09;101901.59;;;22.35;50.07
58686;BME280;44465;53.206;-6.106;2022-08-04T13:58:43;101902.38;;;22.37;50.17
58686;BME280;44465;53.206;-6.106;2022-08-04T14:01:14;101892.53;;;22.37;50.30
58686;BME280;44465;53.206;-6.106;2022-08-04T14:03:53;101905.78;;;22.42;49.98
58686;BME280;44465;53.206;-6.106;2022-08-04T14:06:25;101896.63;;;22.46;50.26
58686;BME280;44465;53.206;-6.106;2022-08-04T14:08:55;101897.41;;;22.50;50.14
58686;BME280;44465;53.206;-6.106;2022-08-04T14:11:48;101904.44;;;22.52;50.06
58686;BME280;44465;53.206;-6.106;2022-08-04T14:14:16;101895.44;;;22.53;50.41
58686;BME280;44465;53.206;-6.106;2022-08-04T14:16:55;101897.19;;;22.54;50.45
58686;BME280;44465;53.206;-6.106;2022-08-04T14:19:21;101907.00;;;22.55;50.71
58686;BME280;44465;53.206;-6.106;2022-08-04T14:21:46;101899.88;;;22.54;50.47
58686;BME280;44465;53.206;-6.106;2022-08-04T14:24:25;101901.41;;;22.60;50.11
58686;BME280;44465;53.206;-6.106;2022-08-04T14:26:51;101896.81;;;22.62;50.06
58686;BME280;44465;53.206;-6.106;2022-08-04T14:29:17;101885.53;;;22.55;50.09
58686;BME280;44465;53.206;-6.106;2022-08-04T14:31:46;101897.72;;;22.62;50.06
58686;BME280;44465;53.206;-6.106;2022-08-04T14:34:27;101891.53;;;22.60;50.02
58686;BME280;44465;53.206;-6.106;2022-08-04T14:36:53;101887.09;;;22.59;50.00
58686;BME280;44465;53.206;-6.106;2022-08-04T14:39:39;101892.22;;;22.66;49.74
58686;BME280;44465;53.206;-6.106;2022-08-04T14:42:05;101897.59;;;22.66;50.18
58686;BME280;44465;53.206;-6.106;2022-08-04T14:44:31;101894.91;;;22.66;49.74
58686;BME280;44465;53.206;-6.106;2022-08-04T14:46:57;101895.56;;;22.71;49.90
58686;BME280;44465;53.206;-6.106;2022-08-04T14:49:26;101896.50;;;22.70;49.95
58686;BME280;44465;53.206;-6.106;2022-08-04T14:51:54;101902.66;;;22.72;49.99
58686;BME280;44465;53.206;-6.106;2022-08-04T14:54:32;101906.28;;;22.71;49.76
58686;BME280;44465;53.206;-6.106;2022-08-04T14:57:03;101912.56;;;22.71;50.13
58686;BME280;44465;53.206;-6.106;2022-08-04T14:59:48;101895.63;;;22.69;49.85
58686;BME280;44465;53.206;-6.106;2022-08-04T15:02:14;101904.41;;;22.73;50.11
58686;BME280;44465;53.206;-6.106;2022-08-04T15:04:45;101893.06;;;22.66;50.15
58686;BME280;44465;53.206;-6.106;2022-08-04T15:07:10;101897.09;;;22.76;50.06
58686;BME280;44465;53.206;-6.106;2022-08-04T15:09:36;101902.47;;;22.76;50.06
58686;BME280;44465;53.206;-6.106;2022-08-04T15:12:03;101895.66;;;22.88;49.92
58686;BME280;44465;53.206;-6.106;2022-08-04T15:14:29;101894.44;;;22.96;50.00
58686;BME280;44465;53.206;-6.106;2022-08-04T15:16:56;101890.06;;;22.93;50.16
58686;BME280;44465;53.206;-6.106;2022-08-04T15:19:22;101887.44;;;22.91;50.25
58686;BME280;44465;53.206;-6.106;2022-08-04T15:21:48;101898.13;;;23.12;49.81
58686;BME280;44465;53.206;-6.106;2022-08-04T15:24:13;101889.00;;;23.16;49.41
58686;BME280;44465;53.206;-6.106;2022-08-04T15:26:48;101887.31;;;23.14;49.71
58686;BME280;44465;53.206;-6.106;2022-08-04T15:29:29;101897.34;;;23.10;49.83
58686;BME280;44465;53.206;-6.106;2022-08-04T15:32:01;101910.00;;;23.08;49.58
58686;BME280;44465;53.206;-6.106;2022-08-04T15:34:43;101902.13;;;23.03;49.79
58686;BME280;44465;53.206;-6.106;2022-08-04T15:37:09;101911.88;;;23.06;49.63
58686;BME280;44465;53.206;-6.106;2022-08-04T15:39:51;101905.78;;;23.02;49.68
58686;BME280;44465;53.206;-6.106;2022-08-04T15:42:30;101918.09;;;23.06;49.62
58686;BME280;44465;53.206;-6.106;2022-08-04T15:45:22;101904.88;;;23.02;49.68
58686;BME280;44465;53.206;-6.106;2022-08-04T15:50:31;101909.59;;;23.16;49.73
58686;BME280;44465;53.206;-6.106;2022-08-04T16:00:27;101914.91;;;23.38;49.47
58686;BME280;44465;53.206;-6.106;2022-08-04T16:02:53;101907.78;;;23.37;49.36
58686;BME280;44465;53.206;-6.106;2022-08-04T16:07:55;101898.75;;;23.38;49.65
58686;BME280;44465;53.206;-6.106;2022-08-04T16:13:03;101902.75;;;23.48;49.39
58686;BME280;44465;53.206;-6.106;2022-08-04T16:15:37;101891.25;;;23.45;49.36
58686;BME280;44465;53.206;-6.106;2022-08-04T16:18:03;101895.03;;;23.60;49.20
58686;BME280;44465;53.206;-6.106;2022-08-04T16:20:29;101885.94;;;23.62;49.19
58686;BME280;44465;53.206;-6.106;2022-08-04T16:22:56;101891.47;;;23.77;49.21
58686;BME280;44465;53.206;-6.106;2022-08-04T16:25:44;101891.34;;;23.80;48.65
58686;BME280;44465;53.206;-6.106;2022-08-04T16:31:03;101895.69;;;23.82;49.08
58686;BME280;44465;53.206;-6.106;2022-08-04T16:33:30;101896.19;;;23.91;49.01
58686;BME280;44465;53.206;-6.106;2022-08-04T16:35:57;101901.38;;;23.95;48.86
58686;BME280;44465;53.206;-6.106;2022-08-04T16:38:23;101888.47;;;24.20;48.39
58686;BME280;44465;53.206;-6.106;2022-08-04T16:40:58;101897.97;;;24.09;48.45
58686;BME280;44465;53.206;-6.106;2022-08-04T16:43:30;101891.50;;;24.31;48.01
58686;BME280;44465;53.206;-6.106;2022-08-04T16:45:57;101892.75;;;24.24;48.45
58686;BME280;44465;53.206;-6.106;2022-08-04T16:48:24;101901.69;;;24.24;48.35
58686;BME280;44465;53.206;-6.106;2022-08-04T16:53:32;101899.06;;;24.23;48.40
58686;BME280;44465;53.206;-6.106;2022-08-04T16:55:58;101897.97;;;24.27;48.35
58686;BME280;44465;53.206;-6.106;2022-08-04T16:58:31;101906.19;;;24.24;48.54
58686;BME280;44465;53.206;-6.106;2022-08-04T17:01:04;101905.09;;;24.28;48.19
58686;BME280;44465;53.206;-6.106;2022-08-04T17:03:31;101911.09;;;24.33;47.73
58686;BME280;44465;53.206;-6.106;2022-08-04T17:06:12;101911.09;;;24.33;47.88
58686;BME280;44465;53.206;-6.106;2022-08-04T17:08:47;101914.44;;;24.38;47.92